Time;durP1;ratioP1;P1;durP2;ratioP2;P2;SDS_P1;SDS_P2;PMS_P1;PMS_P2;Temp;Humidity;BMP_temperature;BMP_pressure;BME280_temperature;BME280_humidity;BME280_pressure;Samples;Min_cycle;Max_cycle;Signal;HPM_P1;HPM_P2
2021/11/01 00:02:33;;;;;;;2.20;1.77;;;18.30;69.10;;;;;;10489477;28;20217;-65
2021/11/01 00:07:56;;;;;;;2.20;2.00;;;18.30;69.60;;;;;;10460718;28;20217;-64
2021/11/01 00:13:18;;;;;;;1.90;1.63;;;18.30;69.10;;;;;;10461178;28;20326;-64
2021/11/01 00:18:42;;;;;;;2.30;2.07;;;18.30;69.20;;;;;;10461105;28;20216;-64
2021/11/01 00:24:04;;;;;;;1.60;1.50;;;18.30;69.50;;;;;;10478526;28;20211;-65
2021/11/01 00:29:26;;;;;;;3.13;1.60;;;18.30;70.00;;;;;;10488617;28;20212;-65
2021/11/01 00:34:50;;;;;;;1.80;1.30;;;18.20;70.20;;;;;;10490388;28;20216;-65
2021/11/01 00:40:12;;;;;;;1.40;1.30;;;18.20;69.70;;;;;;10458939;28;20212;-64
2021/11/01 00:45:35;;;;;;;1.90;1.50;;;18.20;69.00;;;;;;10458281;28;20700;-65
2021/11/01 00:50:59;;;;;;;2.03;1.33;;;18.20;68.60;;;;;;10483009;28;20197;-64
2021/11/01 00:56:21;;;;;;;2.03;1.23;;;18.20;68.20;;;;;;10500286;28;20216;-64
2021/11/01 01:01:44;;;;;;;1.53;1.20;;;18.20;68.10;;;;;;10499251;28;20216;-64
2021/11/01 01:07:08;;;;;;;2.33;1.53;;;18.10;68.00;;;;;;10497545;28;20228;-64
2021/11/01 01:12:30;;;;;;;2.67;1.17;;;18.10;68.10;;;;;;10498839;28;20571;-64
2021/11/01 01:17:59;;;;;;;1.73;1.30;;;18.10;67.90;;;;;;10497768;28;20216;-64
2021/11/01 01:23:22;;;;;;;3.67;1.40;;;18.10;67.90;;;;;;10496099;28;20303;-64
2021/11/01 01:28:44;;;;;;;3.00;1.20;;;18.10;68.20;;;;;;10489122;28;20225;-64
2021/11/01 01:34:06;;;;;;;3.90;1.70;;;18.10;68.40;;;;;;10456352;28;20204;-64
2021/11/01 01:39:30;;;;;;;5.57;1.77;;;18.00;68.30;;;;;;10471149;28;20588;-64
2021/11/01 01:44:52;;;;;;;3.43;1.43;;;18.00;68.40;;;;;;10458015;28;20692;-64
2021/11/01 01:50:17;;;;;;;7.23;1.67;;;18.00;68.30;;;;;;10455018;28;20268;-64
2021/11/01 01:55:40;;;;;;;3.30;1.57;;;18.00;68.20;;;;;;10455610;28;20216;-64
2021/11/01 02:01:08;;;;;;;8.87;2.30;;;18.10;68.20;;;;;;10454492;28;20217;-64
2021/11/01 02:06:52;;;;;;;4.53;1.40;;;18.20;67.80;;;;;;10454614;28;20223;-65
2021/11/01 02:12:19;;;;;;;5.97;1.97;;;18.20;67.60;;;;;;10453782;28;20260;-64
2021/11/01 02:17:41;;;;;;;5.83;1.80;;;18.20;67.70;;;;;;10454073;28;20224;-64
2021/11/01 02:23:13;;;;;;;4.23;1.70;;;18.20;67.80;;;;;;10464625;28;20220;-64
2021/11/01 02:28:39;;;;;;;3.63;1.50;;;18.20;67.80;;;;;;10463275;28;20209;-64
2021/11/01 02:34:03;;;;;;;6.33;1.60;;;18.20;67.90;;;;;;10454931;28;20212;-64
2021/11/01 02:39:26;;;;;;;5.13;1.80;;;18.10;68.10;;;;;;10455023;28;20213;-64
2021/11/01 02:44:55;;;;;;;6.63;1.77;;;18.10;68.20;;;;;;10453924;28;20687;-64
2021/11/01 02:50:21;;;;;;;7.33;1.90;;;18.10;68.40;;;;;;10454932;28;20186;-64
2021/11/01 02:55:43;;;;;;;4.37;1.50;;;18.10;68.40;;;;;;10457612;28;20211;-64
2021/11/01 03:01:07;;;;;;;6.60;1.67;;;18.10;68.50;;;;;;10486520;28;20216;-64
2021/11/01 03:06:31;;;;;;;4.03;1.50;;;18.10;68.60;;;;;;10452283;28;20292;-64
2021/11/01 03:11:54;;;;;;;4.10;1.60;;;18.10;68.50;;;;;;10453178;28;20193;-64
2021/11/01 03:17:19;;;;;;;5.70;1.50;;;18.10;68.40;;;;;;10462056;28;20584;-65
2021/11/01 03:22:43;;;;;;;4.57;1.27;;;18.10;68.20;;;;;;10486134;28;20200;-64
2021/11/01 03:28:08;;;;;;;5.73;1.70;;;18.20;68.00;;;;;;10455543;28;20215;-64
2021/11/01 03:33:37;;;;;;;8.33;2.07;;;18.20;67.80;;;;;;10492961;28;20193;-64
2021/11/01 03:39:01;;;;;;;6.13;1.73;;;18.20;67.70;;;;;;10483820;28;20204;-64
2021/11/01 03:44:28;;;;;;;2.93;1.27;;;18.20;67.80;;;;;;10493217;28;20208;-64
2021/11/01 03:49:56;;;;;;;6.83;1.50;;;18.10;67.80;;;;;;10476268;28;20193;-64
2021/11/01 03:55:19;;;;;;;4.27;1.30;;;18.10;67.90;;;;;;10451223;28;20292;-64
2021/11/01 04:00:43;;;;;;;7.03;1.93;;;18.10;68.10;;;;;;10452571;28;20217;-64
2021/11/01 04:06:07;;;;;;;5.17;2.00;;;18.10;68.10;;;;;;10452690;28;20295;-64
2021/11/01 04:11:30;;;;;;;5.93;1.80;;;18.10;68.00;;;;;;10452526;28;20272;-64
2021/11/01 04:16:57;;;;;;;9.63;1.93;;;18.20;67.80;;;;;;10466013;28;20227;-65
2021/11/01 04:22:21;;;;;;;5.67;1.50;;;18.20;67.60;;;;;;10485494;28;20267;-64
2021/11/01 04:27:44;;;;;;;9.63;2.20;;;18.20;67.60;;;;;;10451248;28;20565;-65
2021/11/01 04:33:09;;;;;;;5.80;1.80;;;18.20;67.40;;;;;;10450675;28;20197;-64
2021/11/01 04:38:42;;;;;;;5.77;1.87;;;18.20;67.50;;;;;;10511173;22;20246;-64
2021/11/01 04:44:21;;;;;;;5.70;1.60;;;18.20;67.60;;;;;;10522090;28;20228;-64
2021/11/01 04:55:24;;;;;;;3.90;1.30;;;18.30;68.10;;;;;;10469555;28;20227;-64
2021/11/01 05:00:47;;;;;;;3.53;1.63;;;18.30;67.90;;;;;;10458840;28;20692;-64
2021/11/01 05:06:11;;;;;;;5.60;1.53;;;18.30;67.50;;;;;;10458950;28;20217;-65
2021/11/01 05:11:39;;;;;;;5.37;1.70;;;18.40;67.60;;;;;;10472665;28;20692;-64
2021/11/01 05:17:14;;;;;;;5.70;1.87;;;18.40;67.30;;;;;;10473507;28;20234;-64
2021/11/01 05:22:42;;;;;;;3.90;1.20;;;18.40;67.10;;;;;;10498449;28;20301;-64
2021/11/01 05:28:11;;;;;;;6.50;1.77;;;18.40;67.00;;;;;;10485935;28;20288;-64
2021/11/01 05:33:49;;;;;;;4.87;1.43;;;18.40;67.00;;;;;;10458308;28;20190;-64
2021/11/01 05:39:12;;;;;;;4.93;1.73;;;18.40;67.10;;;;;;10480315;28;20269;-64
2021/11/01 05:44:35;;;;;;;6.27;1.80;;;18.50;66.90;;;;;;10465642;28;20591;-64
2021/11/01 05:49:58;;;;;;;5.10;1.50;;;18.50;66.80;;;;;;10453286;28;20629;-63
2021/11/01 05:55:31;;;;;;;5.87;1.83;;;18.50;66.70;;;;;;10457364;28;20714;-64
2021/11/01 06:01:14;;;;;;;7.37;1.93;;;18.50;66.70;;;;;;10455108;28;20592;-64
2021/11/01 06:07:00;;;;;;;3.43;1.20;;;18.50;66.60;;;;;;10455487;28;20723;-64
2021/11/01 06:18:02;;;;;;;6.37;1.97;;;18.50;66.60;;;;;;10478218;28;20208;-64
2021/11/01 06:23:25;;;;;;;4.93;1.47;;;18.50;66.60;;;;;;10481256;28;20225;-67
2021/11/01 06:28:50;;;;;;;3.93;1.63;;;18.50;66.60;;;;;;10462399;28;20707;-64
2021/11/01 06:34:25;;;;;;;7.03;1.50;;;18.50;66.60;;;;;;10470576;28;20300;-64
2021/11/01 06:39:57;;;;;;;4.57;1.67;;;18.60;66.60;;;;;;10464722;28;20283;-64
2021/11/01 06:45:30;;;;;;;3.40;1.17;;;18.60;66.50;;;;;;10490947;28;20230;-64
2021/11/01 06:51:12;;;;;;;4.20;1.33;;;18.60;66.60;;;;;;10495158;28;20203;-65
2021/11/01 06:56:46;;;;;;;4.67;1.50;;;18.60;66.60;;;;;;10474454;28;20231;-66
2021/11/01 07:19:14;;;;;;;2.93;1.13;;;18.60;66.00;;;;;;10469528;28;20292;-65
2021/11/01 08:38:51;;;;;;;4.40;1.70;;;18.70;65.10;;;;;;10460711;28;20765;-65
2021/11/01 08:50:11;;;;;;;3.87;1.00;;;18.70;65.00;;;;;;10467650;28;20196;-69
2021/11/01 09:07:14;;;;;;;4.93;1.40;;;18.70;65.10;;;;;;10470519;28;20275;-70
2021/11/01 09:13:10;;;;;;;2.80;1.20;;;18.70;65.00;;;;;;10461926;28;20195;-70
2021/11/01 09:18:54;;;;;;;3.63;1.10;;;18.70;65.40;;;;;;10482960;28;20296;-66
2021/11/01 09:24:33;;;;;;;2.47;1.20;;;18.70;65.20;;;;;;10455638;28;20726;-66
2021/11/01 09:30:07;;;;;;;2.83;1.03;;;18.70;64.80;;;;;;10457057;28;20691;-65
2021/11/01 09:35:53;;;;;;;3.37;1.30;;;18.70;65.00;;;;;;10462023;28;20623;-65
2021/11/01 09:41:17;;;;;;;5.13;1.13;;;18.70;65.00;;;;;;10470995;28;20700;-66
2021/11/01 09:46:40;;;;;;;2.67;1.17;;;18.60;65.10;;;;;;10478261;28;20248;-66
2021/11/01 09:52:07;;;;;;;4.47;1.27;;;18.60;65.10;;;;;;10464867;28;20207;-66
2021/11/01 09:57:35;;;;;;;3.53;1.30;;;18.60;65.10;;;;;;10473008;28;20216;-67
2021/11/01 10:02:58;;;;;;;3.87;1.00;;;18.60;65.10;;;;;;10471610;28;20223;-65
2021/11/01 10:08:20;;;;;;;4.10;1.30;;;18.60;64.90;;;;;;10475075;28;20743;-64
2021/11/01 10:13:43;;;;;;;3.50;0.87;;;18.60;65.00;;;;;;10478197;28;20196;-65
2021/11/01 10:19:06;;;;;;;2.20;1.03;;;18.60;65.00;;;;;;10462020;28;20227;-66
2021/11/01 10:24:34;;;;;;;1.97;0.90;;;18.60;64.80;;;;;;10473656;28;20697;-65
2021/11/01 10:30:00;;;;;;;4.93;1.45;;;18.60;64.70;;;;;;10463537;28;20919;-65
2021/11/01 10:40:35;;;;;;;4.03;1.23;;;18.80;64.00;;;;;;10508455;28;20243;-67
2021/11/01 11:14:36;;;;;;;1.50;0.70;;;18.70;64.20;;;;;;10493872;28;20218;-65
2021/11/01 11:49:12;;;;;;;2.80;0.87;;;18.70;64.00;;;;;;10495477;28;20390;-65
2021/11/01 11:54:42;;;;;;;3.03;0.67;;;18.70;62.40;;;;;;10509194;28;20199;-66
2021/11/01 12:00:08;;;;;;;3.00;0.90;;;18.70;62.10;;;;;;10495065;28;20231;-65
2021/11/01 12:05:36;;;;;;;2.50;0.73;;;18.70;62.70;;;;;;10494107;28;20696;-65
2021/11/01 12:11:30;;;;;;;5.97;0.97;;;18.70;63.20;;;;;;10499686;28;20192;-65
2021/11/01 12:22:43;;;;;;;1.73;0.60;;;18.70;63.90;;;;;;10493998;28;20219;-65
2021/11/01 12:28:17;;;;;;;3.33;1.10;;;18.70;62.00;;;;;;10497859;28;20222;-65
2021/11/01 12:33:46;;;;;;;3.03;0.73;;;18.70;61.70;;;;;;10496621;28;20272;-66
2021/11/01 12:39:21;;;;;;;1.47;0.70;;;18.70;62.30;;;;;;10497312;28;20227;-67
2021/11/01 13:01:54;;;;;;;2.13;0.70;;;18.70;64.70;;;;;;10494008;28;20214;-65
2021/11/01 13:18:47;;;;;;;2.97;0.90;;;18.80;63.30;;;;;;10474187;28;20209;-65
2021/11/01 13:24:11;;;;;;;2.40;0.60;;;18.80;63.00;;;;;;10495330;28;20664;-65
2021/11/01 13:41:10;;;;;;;2.73;0.80;;;18.80;64.00;;;;;;10490081;28;20225;-65
2021/11/01 13:46:32;;;;;;;3.90;1.27;;;18.80;62.60;;;;;;10491790;28;20896;-65
2021/11/01 13:52:06;;;;;;;3.47;0.87;;;19.40;60.60;;;;;;10501719;28;20419;-64
2021/11/01 13:57:32;;;;;;;2.87;0.80;;;19.10;61.20;;;;;;10493733;28;20227;-64
2021/11/01 14:14:44;;;;;;;2.87;0.80;;;18.80;61.60;;;;;;10455345;28;20192;-65
2021/11/01 14:20:30;;;;;;;2.10;0.63;;;18.80;63.20;;;;;;10489634;28;20220;-65
2021/11/01 15:00:41;;;;;;;1.50;0.77;;;18.80;62.90;;;;;;10481933;28;20216;-66
2021/11/01 15:17:51;;;;;;;4.10;1.00;;;18.80;63.00;;;;;;10450809;28;20848;-66
2021/11/01 15:34:55;;;;;;;4.77;1.20;;;18.80;63.10;;;;;;10488338;28;20223;-66
2021/11/01 16:19:54;;;;;;;1.87;0.97;;;18.80;63.50;;;;;;10488058;28;20287;-64
2021/11/01 16:25:18;;;;;;;2.80;1.00;;;18.80;63.50;;;;;;10490767;28;20222;-64
2021/11/01 16:30:47;;;;;;;1.90;1.00;;;18.80;63.00;;;;;;10489149;28;20663;-64
2021/11/01 16:41:26;;;;;;;2.80;0.93;;;18.90;62.80;;;;;;10483986;28;20284;-68
2021/11/01 16:46:50;;;;;;;1.73;0.87;;;18.90;63.00;;;;;;10471588;28;20221;-67
2021/11/01 16:52:15;;;;;;;2.50;0.90;;;18.90;62.40;;;;;;10444333;28;20225;-68
2021/11/01 16:57:44;;;;;;;2.17;1.00;;;18.90;61.60;;;;;;10436223;28;20586;-68
2021/11/01 17:26:00;;;;;;;2.37;1.30;;;18.90;61.70;;;;;;10443547;28;20312;-68
2021/11/01 17:34:38;;;;;;;4.80;1.63;;;18.90;62.10;;;;;;10438306;28;20673;-69
2021/11/01 17:37:18;;;;;;;4.45;2.00;;;18.90;61.40;;;;;;10448516;28;20424;-67
2021/11/01 18:39:58;;;;;;;5.67;2.63;;;18.90;60.30;;;;;;10370448;28;20589;-68
2021/11/01 18:45:41;;;;;;;3.13;2.50;;;18.90;60.20;;;;;;10412305;28;20566;-68
2021/11/01 18:51:08;;;;;;;5.30;3.00;;;18.80;60.70;;;;;;10408275;28;20229;-68
2021/11/01 18:56:37;;;;;;;8.87;5.27;;;18.90;60.40;;;;;;10406552;28;20200;-67
2021/11/01 19:02:12;;;;;;;8.80;5.13;;;18.80;59.50;;;;;;10418977;28;20303;-69
2021/11/01 19:07:41;;;;;;;9.00;5.57;;;18.80;59.50;;;;;;10430894;28;20280;-67
2021/11/01 20:04:26;;;;;;;7.83;5.60;;;18.70;59.40;;;;;;10405283;28;20218;-67
2021/11/01 20:10:19;;;;;;;9.43;5.60;;;18.70;59.40;;;;;;10417088;28;20688;-67
2021/11/01 21:29:53;;;;;;;7.13;4.80;;;18.60;59.00;;;;;;10455209;28;20630;-70
2021/11/01 21:35:16;;;;;;;8.00;5.00;;;18.70;58.80;;;;;;10442916;28;20690;-67
2021/11/01 21:40:38;;;;;;;5.63;4.43;;;18.60;58.90;;;;;;10422262;28;20715;-67
2021/11/01 21:46:01;;;;;;;7.67;4.80;;;18.60;58.90;;;;;;10456108;28;20223;-67
2021/11/01 21:51:25;;;;;;;7.20;4.50;;;18.60;59.40;;;;;;10445419;28;20216;-67
2021/11/01 21:56:51;;;;;;;6.03;4.47;;;18.50;59.70;;;;;;10414029;28;20209;-67
2021/11/01 22:25:03;;;;;;;8.00;5.33;;;18.30;60.60;;;;;;10439336;28;20216;-70
2021/11/01 22:42:02;;;;;;;6.33;3.97;;;18.30;61.10;;;;;;10549698;22;20235;-64
2021/11/01 22:58:55;;;;;;;6.57;3.27;;;18.20;61.00;;;;;;10464401;28;20213;-63
2021/11/01 23:04:33;;;;;;;4.97;3.20;;;18.20;60.90;;;;;;10493910;28;20618;-64
2021/11/01 23:32:37;;;;;;;4.30;2.83;;;18.30;60.60;;;;;;10466331;28;20193;-64
2021/11/01 23:38:01;;;;;;;5.33;2.80;;;18.20;60.30;;;;;;10456446;28;20231;-64
2021/11/01 23:43:25;;;;;;;3.37;2.20;;;18.20;60.30;;;;;;10522744;28;20220;-64
2021/11/01 23:48:48;;;;;;;4.07;2.37;;;18.20;60.30;;;;;;10525181;28;20228;-64
2021/11/01 23:54:25;;;;;;;3.63;2.17;;;18.20;60.40;;;;;;10514583;28;20196;-64
2021/11/01 23:59:49;;;;;;;3.57;2.40;;;18.10;60.30;;;;;;10533310;28;20211;-64
